No.3 Yushin Maru — 7JCH — position and weather

sailwx.info

Track history (hours):
 
Tides and Currents Weather Stations Pressure Air Temp Water Temp Dewpoint Dewpoint Depression Visibility Wind Speed Wind Dir Waves Ship Positions

No.3 Yushin Maru

Last reported at 2018-Aug-20 13:01 UTC. Time now 2018-Nov-13 06:34 UTC.
Position N 34°59' E 139°30'.
Warning: this ship's position is months out of date.

Length 63 m; draft 5.4 m.

Type: Fishing. MMSI: 432621000.

Date/timePositionNaut miles runAvg speedWind from/ knotsBaromVisibWave heightAir tempDewpointWater temp
2018-Aug-20 13:01N 34°59' E 139°30'110.3
2018-Aug-20 12:57N 34°59' E 139°30'511.0
2018-Aug-20 12:30N 35°02' E 139°35'511.9
2018-Aug-20 12:03N 35°05' E 139°41'112.6
2018-Aug-20 12:00N 35°05' E 139°41'612.1
2018-Aug-20 11:30N 35°10' E 139°45'511.9
2018-Aug-20 11:03N 35°16' E 139°46'112.3
2018-Aug-20 10:58N 35°17' E 139°45'711.5
2018-Aug-20 10:21N 35°23' E 139°42'411.6
2018-Aug-20 10:02N 35°26' E 139°45'012.6
2018-Aug-20 10:00N 35°26' E 139°46'3 0.3
2018-Aug-20 02:44N 35°26' E 139°49'313.0
2018-Aug-20 02:30N 35°24' E 139°46'611.3
2018-Aug-20 01:59N 35°18' E 139°45'612.6
2018-Aug-20 01:30N 35°12' E 139°47'713.3
2018-Aug-20 01:00N 35°06' E 139°45'812.9
2018-Aug-20 00:25N 34°59' E 139°42'  
Track history (hours):
 
Tides and Currents Weather Stations Pressure Air Temp Water Temp Dewpoint Dewpoint Depression Visibility Wind Speed Wind Dir Waves Ship Positions

No.3 Yushin Maru

Last reported at 2018-Aug-20 13:01 UTC. Time now 2018-Nov-13 06:34 UTC.
Position N 34°59' E 139°30'.
Warning: this ship's position is months out of date.

Length 63 m; draft 5.4 m.

Type: Fishing. MMSI: 432621000.

Date/timePositionNaut miles runAvg speedWind from/ knotsBaromVisibWave heightAir tempDewpointWater temp
2018-Aug-20 13:01N 34°59' E 139°30'110.3
2018-Aug-20 12:57N 34°59' E 139°30'511.0
2018-Aug-20 12:30N 35°02' E 139°35'511.9
2018-Aug-20 12:03N 35°05' E 139°41'112.6
2018-Aug-20 12:00N 35°05' E 139°41'612.1
2018-Aug-20 11:30N 35°10' E 139°45'511.9
2018-Aug-20 11:03N 35°16' E 139°46'112.3
2018-Aug-20 10:58N 35°17' E 139°45'711.5
2018-Aug-20 10:21N 35°23' E 139°42'411.6
2018-Aug-20 10:02N 35°26' E 139°45'012.6
2018-Aug-20 10:00N 35°26' E 139°46'3 0.3
2018-Aug-20 02:44N 35°26' E 139°49'313.0
2018-Aug-20 02:30N 35°24' E 139°46'611.3
2018-Aug-20 01:59N 35°18' E 139°45'612.6
2018-Aug-20 01:30N 35°12' E 139°47'713.3
2018-Aug-20 01:00N 35°06' E 139°45'812.9
2018-Aug-20 00:25N 34°59' E 139°42'  

Dump ship's entire track history